sensor_id;sensor_type;location;lat;lon;timestamp;P1;durP1;ratioP1;P2;durP2;ratioP2
10565;SDS011;5331;48.148;16.326;2023-04-15T00:00:09;1.10;;;1.10;;
10565;SDS011;5331;48.148;16.326;2023-04-15T00:02:36;1.07;;;1.07;;
10565;SDS011;5331;48.148;16.326;2023-04-15T00:05:04;1.03;;;1.00;;
10565;SDS011;5331;48.148;16.326;2023-04-15T00:07:31;1.10;;;1.10;;
10565;SDS011;5331;48.148;16.326;2023-04-15T00:09:58;1.30;;;1.30;;
10565;SDS011;5331;48.148;16.326;2023-04-15T00:12:26;1.00;;;1.00;;
10565;SDS011;5331;48.148;16.326;2023-04-15T00:14:55;1.27;;;1.17;;
10565;SDS011;5331;48.148;16.326;2023-04-15T00:17:23;1.10;;;1.10;;
10565;SDS011;5331;48.148;16.326;2023-04-15T00:19:49;1.10;;;1.10;;
10565;SDS011;5331;48.148;16.326;2023-04-15T00:22:16;1.20;;;1.10;;
10565;SDS011;5331;48.148;16.326;2023-04-15T00:24:43;1.23;;;1.23;;
10565;SDS011;5331;48.148;16.326;2023-04-15T00:27:10;1.47;;;1.30;;
10565;SDS011;5331;48.148;16.326;2023-04-15T00:29:37;1.30;;;1.20;;
10565;SDS011;5331;48.148;16.326;2023-04-15T00:32:06;2.50;;;1.93;;
10565;SDS011;5331;48.148;16.326;2023-04-15T00:34:33;2.63;;;2.43;;
10565;SDS011;5331;48.148;16.326;2023-04-15T00:37:00;3.10;;;2.20;;
10565;SDS011;5331;48.148;16.326;2023-04-15T00:39:27;2.93;;;2.20;;
10565;SDS011;5331;48.148;16.326;2023-04-15T00:41:54;2.60;;;2.10;;
10565;SDS011;5331;48.148;16.326;2023-04-15T00:44:22;3.57;;;2.50;;
10565;SDS011;5331;48.148;16.326;2023-04-15T00:46:50;2.87;;;2.00;;
10565;SDS011;5331;48.148;16.326;2023-04-15T00:49:18;1.60;;;1.50;;
10565;SDS011;5331;48.148;16.326;2023-04-15T00:51:46;4.37;;;2.17;;
10565;SDS011;5331;48.148;16.326;2023-04-15T00:54:13;2.43;;;2.10;;
10565;SDS011;5331;48.148;16.326;2023-04-15T00:56:40;5.33;;;2.93;;
10565;SDS011;5331;48.148;16.326;2023-04-15T00:59:07;1.70;;;1.60;;
10565;SDS011;5331;48.148;16.326;2023-04-15T01:01:35;1.80;;;1.70;;
10565;SDS011;5331;48.148;16.326;2023-04-15T01:04:03;1.20;;;1.20;;
10565;SDS011;5331;48.148;16.326;2023-04-15T01:06:32;2.80;;;2.10;;
10565;SDS011;5331;48.148;16.326;2023-04-15T01:08:59;1.57;;;1.50;;
10565;SDS011;5331;48.148;16.326;2023-04-15T01:11:26;6.23;;;3.53;;
10565;SDS011;5331;48.148;16.326;2023-04-15T01:13:54;7.33;;;4.43;;
10565;SDS011;5331;48.148;16.326;2023-04-15T01:16:22;2.10;;;1.83;;
10565;SDS011;5331;48.148;16.326;2023-04-15T01:18:49;3.13;;;2.70;;
10565;SDS011;5331;48.148;16.326;2023-04-15T01:21:16;1.50;;;1.50;;
10565;SDS011;5331;48.148;16.326;2023-04-15T01:23:45;1.07;;;1.07;;
10565;SDS011;5331;48.148;16.326;2023-04-15T01:26:14;1.10;;;1.10;;
10565;SDS011;5331;48.148;16.326;2023-04-15T01:28:42;1.30;;;1.30;;
10565;SDS011;5331;48.148;16.326;2023-04-15T01:31:09;1.20;;;1.20;;
10565;SDS011;5331;48.148;16.326;2023-04-15T01:33:37;1.40;;;1.30;;
10565;SDS011;5331;48.148;16.326;2023-04-15T01:36:05;1.40;;;1.37;;
10565;SDS011;5331;48.148;16.326;2023-04-15T01:38:34;1.47;;;1.40;;
10565;SDS011;5331;48.148;16.326;2023-04-15T01:41:01;1.93;;;1.70;;
10565;SDS011;5331;48.148;16.326;2023-04-15T01:43:30;1.37;;;1.27;;
10565;SDS011;5331;48.148;16.326;2023-04-15T01:45:57;1.60;;;1.50;;
10565;SDS011;5331;48.148;16.326;2023-04-15T01:48:24;1.90;;;1.80;;
10565;SDS011;5331;48.148;16.326;2023-04-15T01:50:51;1.90;;;1.80;;
10565;SDS011;5331;48.148;16.326;2023-04-15T01:53:21;1.90;;;1.80;;
10565;SDS011;5331;48.148;16.326;2023-04-15T01:55:48;1.70;;;1.60;;
10565;SDS011;5331;48.148;16.326;2023-04-15T01:58:15;1.73;;;1.67;;
10565;SDS011;5331;48.148;16.326;2023-04-15T02:00:43;1.70;;;1.60;;
10565;SDS011;5331;48.148;16.326;2023-04-15T02:03:11;1.70;;;1.60;;
10565;SDS011;5331;48.148;16.326;2023-04-15T02:05:38;1.50;;;1.40;;
10565;SDS011;5331;48.148;16.326;2023-04-15T02:08:05;1.47;;;1.47;;
10565;SDS011;5331;48.148;16.326;2023-04-15T02:10:32;1.57;;;1.50;;
10565;SDS011;5331;48.148;16.326;2023-04-15T02:12:59;1.57;;;1.47;;
10565;SDS011;5331;48.148;16.326;2023-04-15T02:15:26;1.40;;;1.37;;
10565;SDS011;5331;48.148;16.326;2023-04-15T02:17:55;1.70;;;1.60;;
10565;SDS011;5331;48.148;16.326;2023-04-15T02:20:23;1.63;;;1.53;;
10565;SDS011;5331;48.148;16.326;2023-04-15T02:22:50;1.57;;;1.47;;
10565;SDS011;5331;48.148;16.326;2023-04-15T02:25:17;2.70;;;1.67;;
10565;SDS011;5331;48.148;16.326;2023-04-15T02:27:44;2.53;;;1.60;;
10565;SDS011;5331;48.148;16.326;2023-04-15T02:30:11;1.40;;;1.40;;
10565;SDS011;5331;48.148;16.326;2023-04-15T02:32:38;1.60;;;1.50;;
10565;SDS011;5331;48.148;16.326;2023-04-15T02:35:10;2.60;;;1.60;;
10565;SDS011;5331;48.148;16.326;2023-04-15T02:37:37;1.50;;;1.40;;
10565;SDS011;5331;48.148;16.326;2023-04-15T02:40:07;1.70;;;1.60;;
10565;SDS011;5331;48.148;16.326;2023-04-15T02:42:36;1.57;;;1.50;;
10565;SDS011;5331;48.148;16.326;2023-04-15T02:45:04;1.57;;;1.47;;
10565;SDS011;5331;48.148;16.326;2023-04-15T02:47:32;1.63;;;1.53;;
10565;SDS011;5331;48.148;16.326;2023-04-15T02:50:00;1.30;;;1.30;;
10565;SDS011;5331;48.148;16.326;2023-04-15T02:52:29;1.40;;;1.40;;
10565;SDS011;5331;48.148;16.326;2023-04-15T02:54:56;1.63;;;1.53;;
10565;SDS011;5331;48.148;16.326;2023-04-15T02:57:25;1.60;;;1.50;;
10565;SDS011;5331;48.148;16.326;2023-04-15T02:59:52;1.30;;;1.30;;
10565;SDS011;5331;48.148;16.326;2023-04-15T03:02:19;1.50;;;1.40;;
10565;SDS011;5331;48.148;16.326;2023-04-15T03:04:46;1.50;;;1.40;;
10565;SDS011;5331;48.148;16.326;2023-04-15T03:07:14;1.93;;;1.80;;
10565;SDS011;5331;48.148;16.326;2023-04-15T03:09:44;2.00;;;1.90;;
10565;SDS011;5331;48.148;16.326;2023-04-15T03:12:12;3.17;;;1.67;;
10565;SDS011;5331;48.148;16.326;2023-04-15T03:14:39;1.30;;;1.30;;
10565;SDS011;5331;48.148;16.326;2023-04-15T03:17:05;1.40;;;1.40;;
10565;SDS011;5331;48.148;16.326;2023-04-15T03:19:33;1.40;;;1.40;;
10565;SDS011;5331;48.148;16.326;2023-04-15T03:22:00;1.50;;;1.40;;
10565;SDS011;5331;48.148;16.326;2023-04-15T03:24:27;1.90;;;1.70;;
10565;SDS011;5331;48.148;16.326;2023-04-15T03:26:55;1.50;;;1.47;;
10565;SDS011;5331;48.148;16.326;2023-04-15T03:29:22;2.00;;;1.80;;
10565;SDS011;5331;48.148;16.326;2023-04-15T03:31:50;1.70;;;1.60;;
10565;SDS011;5331;48.148;16.326;2023-04-15T03:34:17;1.43;;;1.43;;
10565;SDS011;5331;48.148;16.326;2023-04-15T03:36:44;1.83;;;1.73;;
10565;SDS011;5331;48.148;16.326;2023-04-15T03:39:11;1.50;;;1.50;;
10565;SDS011;5331;48.148;16.326;2023-04-15T03:41:38;1.60;;;1.50;;
10565;SDS011;5331;48.148;16.326;2023-04-15T03:44:07;1.63;;;1.53;;
10565;SDS011;5331;48.148;16.326;2023-04-15T03:46:34;1.83;;;1.60;;
10565;SDS011;5331;48.148;16.326;2023-04-15T03:49:01;1.90;;;1.80;;
10565;SDS011;5331;48.148;16.326;2023-04-15T03:51:27;1.90;;;1.80;;
10565;SDS011;5331;48.148;16.326;2023-04-15T03:53:55;1.77;;;1.67;;
10565;SDS011;5331;48.148;16.326;2023-04-15T03:56:22;2.00;;;1.90;;
10565;SDS011;5331;48.148;16.326;2023-04-15T03:58:49;1.93;;;1.83;;
10565;SDS011;5331;48.148;16.326;2023-04-15T04:01:18;2.00;;;1.90;;
10565;SDS011;5331;48.148;16.326;2023-04-15T04:03:45;1.90;;;1.80;;
10565;SDS011;5331;48.148;16.326;2023-04-15T04:06:12;1.73;;;1.63;;
10565;SDS011;5331;48.148;16.326;2023-04-15T04:08:39;2.00;;;1.90;;
10565;SDS011;5331;48.148;16.326;2023-04-15T04:11:06;2.27;;;2.17;;
10565;SDS011;5331;48.148;16.326;2023-04-15T04:13:33;1.93;;;1.83;;
10565;SDS011;5331;48.148;16.326;2023-04-15T04:16:00;2.00;;;1.90;;
10565;SDS011;5331;48.148;16.326;2023-04-15T04:18:30;2.10;;;2.00;;
10565;SDS011;5331;48.148;16.326;2023-04-15T04:20:56;2.53;;;2.23;;
10565;SDS011;5331;48.148;16.326;2023-04-15T04:23:24;2.20;;;2.00;;
10565;SDS011;5331;48.148;16.326;2023-04-15T04:25:51;2.10;;;2.00;;
10565;SDS011;5331;48.148;16.326;2023-04-15T04:28:18;2.20;;;2.00;;
10565;SDS011;5331;48.148;16.326;2023-04-15T04:30:45;2.10;;;2.00;;
10565;SDS011;5331;48.148;16.326;2023-04-15T04:33:12;2.50;;;2.30;;
10565;SDS011;5331;48.148;16.326;2023-04-15T04:35:40;2.57;;;2.30;;
10565;SDS011;5331;48.148;16.326;2023-04-15T04:38:07;2.20;;;2.00;;
10565;SDS011;5331;48.148;16.326;2023-04-15T04:40:34;2.20;;;2.03;;
10565;SDS011;5331;48.148;16.326;2023-04-15T04:43:01;2.53;;;2.33;;
10565;SDS011;5331;48.148;16.326;2023-04-15T04:45:28;2.40;;;2.23;;
10565;SDS011;5331;48.148;16.326;2023-04-15T04:47:55;2.37;;;2.27;;
10565;SDS011;5331;48.148;16.326;2023-04-15T04:50:22;2.43;;;2.23;;
10565;SDS011;5331;48.148;16.326;2023-04-15T04:52:50;2.57;;;2.43;;
10565;SDS011;5331;48.148;16.326;2023-04-15T04:55:17;2.20;;;2.10;;
10565;SDS011;5331;48.148;16.326;2023-04-15T04:57:44;2.73;;;2.53;;
10565;SDS011;5331;48.148;16.326;2023-04-15T05:00:12;4.30;;;3.03;;
10565;SDS011;5331;48.148;16.326;2023-04-15T05:02:39;3.60;;;3.30;;
10565;SDS011;5331;48.148;16.326;2023-04-15T05:05:08;4.10;;;3.07;;
10565;SDS011;5331;48.148;16.326;2023-04-15T05:10:12;4.67;;;3.90;;
10565;SDS011;5331;48.148;16.326;2023-04-15T05:12:41;4.23;;;3.83;;
10565;SDS011;5331;48.148;16.326;2023-04-15T05:15:08;3.63;;;3.40;;
10565;SDS011;5331;48.148;16.326;2023-04-15T05:17:36;4.17;;;3.77;;
10565;SDS011;5331;48.148;16.326;2023-04-15T05:20:03;3.27;;;3.07;;
10565;SDS011;5331;48.148;16.326;2023-04-15T05:22:31;3.77;;;3.47;;
10565;SDS011;5331;48.148;16.326;2023-04-15T05:24:58;3.67;;;3.37;;
10565;SDS011;5331;48.148;16.326;2023-04-15T05:27:39;3.30;;;3.10;;
10565;SDS011;5331;48.148;16.326;2023-04-15T05:30:07;3.80;;;3.50;;
10565;SDS011;5331;48.148;16.326;2023-04-15T05:32:34;3.80;;;3.40;;
10565;SDS011;5331;48.148;16.326;2023-04-15T05:35:01;3.67;;;3.37;;
10565;SDS011;5331;48.148;16.326;2023-04-15T05:37:28;3.80;;;3.50;;
10565;SDS011;5331;48.148;16.326;2023-04-15T05:39:55;4.03;;;3.63;;
10565;SDS011;5331;48.148;16.326;2023-04-15T05:42:21;3.67;;;3.37;;
10565;SDS011;5331;48.148;16.326;2023-04-15T05:44:50;3.47;;;3.27;;
10565;SDS011;5331;48.148;16.326;2023-04-15T05:47:17;4.43;;;3.07;;
10565;SDS011;5331;48.148;16.326;2023-04-15T05:49:44;3.37;;;3.17;;
10565;SDS011;5331;48.148;16.326;2023-04-15T05:52:11;2.70;;;2.50;;
10565;SDS011;5331;48.148;16.326;2023-04-15T05:54:37;2.67;;;2.47;;
10565;SDS011;5331;48.148;16.326;2023-04-15T05:57:04;2.10;;;2.00;;
10565;SDS011;5331;48.148;16.326;2023-04-15T05:59:32;2.10;;;2.00;;
10565;SDS011;5331;48.148;16.326;2023-04-15T06:02:00;2.30;;;2.20;;
10565;SDS011;5331;48.148;16.326;2023-04-15T06:04:27;2.10;;;2.00;;
10565;SDS011;5331;48.148;16.326;2023-04-15T06:06:54;4.07;;;2.20;;
10565;SDS011;5331;48.148;16.326;2023-04-15T06:09:21;2.27;;;2.00;;
10565;SDS011;5331;48.148;16.326;2023-04-15T06:11:48;2.20;;;2.10;;
10565;SDS011;5331;48.148;16.326;2023-04-15T06:14:15;2.10;;;2.00;;
10565;SDS011;5331;48.148;16.326;2023-04-15T06:16:42;2.50;;;2.30;;
10565;SDS011;5331;48.148;16.326;2023-04-15T06:19:10;4.43;;;2.17;;
10565;SDS011;5331;48.148;16.326;2023-04-15T06:21:38;3.50;;;2.70;;
10565;SDS011;5331;48.148;16.326;2023-04-15T06:24:06;3.47;;;2.33;;
10565;SDS011;5331;48.148;16.326;2023-04-15T06:26:33;2.10;;;2.00;;
10565;SDS011;5331;48.148;16.326;2023-04-15T06:29:00;2.50;;;2.30;;
10565;SDS011;5331;48.148;16.326;2023-04-15T06:31:27;2.60;;;2.50;;
10565;SDS011;5331;48.148;16.326;2023-04-15T06:33:54;2.40;;;2.30;;
10565;SDS011;5331;48.148;16.326;2023-04-15T06:36:24;2.90;;;2.70;;
10565;SDS011;5331;48.148;16.326;2023-04-15T06:38:52;2.90;;;2.70;;
10565;SDS011;5331;48.148;16.326;2023-04-15T06:41:19;2.93;;;2.73;;
10565;SDS011;5331;48.148;16.326;2023-04-15T06:43:46;3.00;;;2.73;;
10565;SDS011;5331;48.148;16.326;2023-04-15T06:46:13;3.23;;;2.97;;
10565;SDS011;5331;48.148;16.326;2023-04-15T06:48:40;3.60;;;3.30;;
10565;SDS011;5331;48.148;16.326;2023-04-15T06:51:07;3.70;;;3.40;;
10565;SDS011;5331;48.148;16.326;2023-04-15T06:53:36;4.17;;;3.77;;
10565;SDS011;5331;48.148;16.326;2023-04-15T06:56:05;4.10;;;3.80;;
10565;SDS011;5331;48.148;16.326;2023-04-15T06:58:33;3.93;;;3.57;;
10565;SDS011;5331;48.148;16.326;2023-04-15T07:01:00;4.90;;;4.37;;
10565;SDS011;5331;48.148;16.326;2023-04-15T07:03:27;3.50;;;3.20;;
10565;SDS011;5331;48.148;16.326;2023-04-15T07:05:54;3.50;;;3.20;;
10565;SDS011;5331;48.148;16.326;2023-04-15T07:08:21;2.30;;;2.20;;
10565;SDS011;5331;48.148;16.326;2023-04-15T07:10:50;2.37;;;2.27;;
10565;SDS011;5331;48.148;16.326;2023-04-15T07:13:18;2.43;;;2.33;;
10565;SDS011;5331;48.148;16.326;2023-04-15T07:15:45;2.70;;;2.50;;
10565;SDS011;5331;48.148;16.326;2023-04-15T07:18:12;2.60;;;2.50;;
10565;SDS011;5331;48.148;16.326;2023-04-15T07:20:39;2.70;;;2.50;;
10565;SDS011;5331;48.148;16.326;2023-04-15T07:23:06;2.70;;;2.50;;
10565;SDS011;5331;48.148;16.326;2023-04-15T07:25:32;2.80;;;2.60;;
10565;SDS011;5331;48.148;16.326;2023-04-15T07:28:01;2.40;;;2.20;;
10565;SDS011;5331;48.148;16.326;2023-04-15T07:30:28;2.37;;;2.20;;
10565;SDS011;5331;48.148;16.326;2023-04-15T07:32:55;2.60;;;2.40;;
10565;SDS011;5331;48.148;16.326;2023-04-15T07:35:23;2.83;;;2.63;;
10565;SDS011;5331;48.148;16.326;2023-04-15T07:37:50;2.50;;;2.40;;
10565;SDS011;5331;48.148;16.326;2023-04-15T07:40:17;2.60;;;2.40;;
10565;SDS011;5331;48.148;16.326;2023-04-15T07:42:44;2.90;;;2.47;;
10565;SDS011;5331;48.148;16.326;2023-04-15T07:45:14;1.90;;;1.80;;
10565;SDS011;5331;48.148;16.326;2023-04-15T07:47:41;1.90;;;1.80;;
10565;SDS011;5331;48.148;16.326;2023-04-15T07:50:09;1.90;;;1.80;;
10565;SDS011;5331;48.148;16.326;2023-04-15T07:52:36;2.10;;;2.00;;
10565;SDS011;5331;48.148;16.326;2023-04-15T07:55:04;2.10;;;1.90;;
10565;SDS011;5331;48.148;16.326;2023-04-15T07:57:32;2.37;;;2.17;;
10565;SDS011;5331;48.148;16.326;2023-04-15T07:59:59;2.70;;;2.50;;
10565;SDS011;5331;48.148;16.326;2023-04-15T08:02:28;3.50;;;2.80;;
10565;SDS011;5331;48.148;16.326;2023-04-15T08:04:55;2.87;;;2.67;;
10565;SDS011;5331;48.148;16.326;2023-04-15T08:07:23;3.40;;;3.10;;
10565;SDS011;5331;48.148;16.326;2023-04-15T08:09:50;3.10;;;2.90;;
10565;SDS011;5331;48.148;16.326;2023-04-15T08:12:17;3.20;;;3.00;;
10565;SDS011;5331;48.148;16.326;2023-04-15T08:14:44;3.70;;;3.40;;
10565;SDS011;5331;48.148;16.326;2023-04-15T08:17:11;3.23;;;2.97;;
10565;SDS011;5331;48.148;16.326;2023-04-15T08:19:40;3.57;;;3.10;;
10565;SDS011;5331;48.148;16.326;2023-04-15T08:22:07;2.70;;;2.50;;
10565;SDS011;5331;48.148;16.326;2023-04-15T08:24:36;3.20;;;2.77;;
10565;SDS011;5331;48.148;16.326;2023-04-15T08:27:03;3.00;;;2.80;;
10565;SDS011;5331;48.148;16.326;2023-04-15T08:29:30;3.40;;;3.20;;
10565;SDS011;5331;48.148;16.326;2023-04-15T08:31:57;3.20;;;2.90;;
10565;SDS011;5331;48.148;16.326;2023-04-15T08:34:25;2.80;;;2.60;;
10565;SDS011;5331;48.148;16.326;2023-04-15T08:37:01;3.00;;;2.80;;
10565;SDS011;5331;48.148;16.326;2023-04-15T08:39:28;3.13;;;2.80;;
10565;SDS011;5331;48.148;16.326;2023-04-15T08:41:55;3.47;;;3.17;;
10565;SDS011;5331;48.148;16.326;2023-04-15T08:44:26;3.20;;;3.00;;
10565;SDS011;5331;48.148;16.326;2023-04-15T08:46:55;3.10;;;2.90;;
10565;SDS011;5331;48.148;16.326;2023-04-15T08:49:22;3.47;;;3.17;;
10565;SDS011;5331;48.148;16.326;2023-04-15T08:51:52;3.60;;;3.30;;
10565;SDS011;5331;48.148;16.326;2023-04-15T08:54:23;3.60;;;3.30;;
10565;SDS011;5331;48.148;16.326;2023-04-15T08:56:51;2.80;;;2.60;;
10565;SDS011;5331;48.148;16.326;2023-04-15T08:59:18;2.93;;;2.73;;
10565;SDS011;5331;48.148;16.326;2023-04-15T09:01:47;3.30;;;2.70;;
10565;SDS011;5331;48.148;16.326;2023-04-15T09:04:15;2.80;;;2.60;;
10565;SDS011;5331;48.148;16.326;2023-04-15T09:06:43;2.60;;;2.40;;
10565;SDS011;5331;48.148;16.326;2023-04-15T09:09:11;2.23;;;2.13;;
10565;SDS011;5331;48.148;16.326;2023-04-15T09:11:40;1.60;;;1.50;;
10565;SDS011;5331;48.148;16.326;2023-04-15T09:14:07;1.80;;;1.70;;
10565;SDS011;5331;48.148;16.326;2023-04-15T09:19:22;2.17;;;2.07;;
10565;SDS011;5331;48.148;16.326;2023-04-15T09:21:50;1.80;;;1.70;;
10565;SDS011;5331;48.148;16.326;2023-04-15T09:24:18;1.87;;;1.77;;
10565;SDS011;5331;48.148;16.326;2023-04-15T09:26:47;1.80;;;1.70;;
10565;SDS011;5331;48.148;16.326;2023-04-15T09:29:18;1.90;;;1.80;;
10565;SDS011;5331;48.148;16.326;2023-04-15T09:31:45;1.97;;;1.87;;
10565;SDS011;5331;48.148;16.326;2023-04-15T09:34:12;2.07;;;1.97;;
10565;SDS011;5331;48.148;16.326;2023-04-15T09:36:54;2.00;;;1.90;;
10565;SDS011;5331;48.148;16.326;2023-04-15T09:39:21;3.10;;;2.88;;
10565;SDS011;5331;48.148;16.326;2023-04-15T09:42:04;3.00;;;2.80;;
10565;SDS011;5331;48.148;16.326;2023-04-15T09:44:32;2.90;;;2.70;;
10565;SDS011;5331;48.148;16.326;2023-04-15T09:46:59;2.60;;;2.50;;
10565;SDS011;5331;48.148;16.326;2023-04-15T09:49:26;2.65;;;2.45;;
10565;SDS011;5331;48.148;16.326;2023-04-15T09:51:56;2.40;;;2.20;;
10565;SDS011;5331;48.148;16.326;2023-04-15T09:54:31;2.50;;;2.30;;
10565;SDS011;5331;48.148;16.326;2023-04-15T09:57:05;2.20;;;2.10;;
10565;SDS011;5331;48.148;16.326;2023-04-15T09:59:33;2.40;;;2.30;;
10565;SDS011;5331;48.148;16.326;2023-04-15T10:02:01;1.80;;;1.70;;
10565;SDS011;5331;48.148;16.326;2023-04-15T10:04:31;2.53;;;2.33;;
10565;SDS011;5331;48.148;16.326;2023-04-15T10:07:01;2.92;;;2.72;;
10565;SDS011;5331;48.148;16.326;2023-04-15T10:09:30;2.10;;;1.80;;
10565;SDS011;5331;48.148;16.326;2023-04-15T10:11:58;1.90;;;1.80;;
10565;SDS011;5331;48.148;16.326;2023-04-15T10:14:28;1.77;;;1.67;;
10565;SDS011;5331;48.148;16.326;2023-04-15T10:16:58;1.70;;;1.60;;
10565;SDS011;5331;48.148;16.326;2023-04-15T10:19:27;1.90;;;1.80;;
10565;SDS011;5331;48.148;16.326;2023-04-15T10:21:57;1.90;;;1.80;;
10565;SDS011;5331;48.148;16.326;2023-04-15T10:24:24;1.60;;;1.50;;
10565;SDS011;5331;48.148;16.326;2023-04-15T10:26:52;1.70;;;1.60;;
10565;SDS011;5331;48.148;16.326;2023-04-15T10:29:19;1.63;;;1.52;;
10565;SDS011;5331;48.148;16.326;2023-04-15T10:31:48;1.65;;;1.55;;
10565;SDS011;5331;48.148;16.326;2023-04-15T10:34:15;2.28;;;2.08;;
10565;SDS011;5331;48.148;16.326;2023-04-15T10:36:43;1.83;;;1.73;;
10565;SDS011;5331;48.148;16.326;2023-04-15T10:42:05;2.20;;;2.00;;
10565;SDS011;5331;48.148;16.326;2023-04-15T10:44:32;1.50;;;1.50;;
10565;SDS011;5331;48.148;16.326;2023-04-15T10:47:03;3.38;;;3.08;;
10565;SDS011;5331;48.148;16.326;2023-04-15T10:49:35;2.70;;;2.50;;
10565;SDS011;5331;48.148;16.326;2023-04-15T10:52:09;1.90;;;1.80;;
10565;SDS011;5331;48.148;16.326;2023-04-15T10:54:36;3.10;;;2.90;;
10565;SDS011;5331;48.148;16.326;2023-04-15T10:57:07;1.80;;;1.70;;
10565;SDS011;5331;48.148;16.326;2023-04-15T11:02:44;2.10;;;2.00;;
10565;SDS011;5331;48.148;16.326;2023-04-15T11:05:12;1.65;;;1.55;;
10565;SDS011;5331;48.148;16.326;2023-04-15T11:07:50;2.10;;;2.00;;
10565;SDS011;5331;48.148;16.326;2023-04-15T11:13:19;1.33;;;1.30;;
10565;SDS011;5331;48.148;16.326;2023-04-15T11:15:53;1.50;;;1.40;;
10565;SDS011;5331;48.148;16.326;2023-04-15T11:18:32;2.00;;;1.90;;
10565;SDS011;5331;48.148;16.326;2023-04-15T11:21:00;1.95;;;1.85;;
10565;SDS011;5331;48.148;16.326;2023-04-15T11:23:29;1.90;;;1.80;;
10565;SDS011;5331;48.148;16.326;2023-04-15T11:26:02;1.30;;;1.30;;
10565;SDS011;5331;48.148;16.326;2023-04-15T11:28:33;1.30;;;1.30;;
10565;SDS011;5331;48.148;16.326;2023-04-15T11:31:07;1.50;;;1.50;;
10565;SDS011;5331;48.148;16.326;2023-04-15T11:33:38;1.48;;;1.48;;
10565;SDS011;5331;48.148;16.326;2023-04-15T11:36:11;4.68;;;2.72;;
10565;SDS011;5331;48.148;16.326;2023-04-15T11:38:41;3.53;;;2.33;;
10565;SDS011;5331;48.148;16.326;2023-04-15T11:41:09;1.23;;;1.23;;
10565;SDS011;5331;48.148;16.326;2023-04-15T11:43:36;1.20;;;1.17;;
10565;SDS011;5331;48.148;16.326;2023-04-15T11:46:03;1.30;;;1.20;;
10565;SDS011;5331;48.148;16.326;2023-04-15T11:48:31;1.08;;;1.08;;
10565;SDS011;5331;48.148;16.326;2023-04-15T11:51:01;1.48;;;1.38;;
10565;SDS011;5331;48.148;16.326;2023-04-15T11:53:35;1.00;;;1.00;;
10565;SDS011;5331;48.148;16.326;2023-04-15T11:56:03;1.13;;;1.13;;
10565;SDS011;5331;48.148;16.326;2023-04-15T11:58:32;1.00;;;1.00;;
10565;SDS011;5331;48.148;16.326;2023-04-15T12:01:01;0.80;;;0.80;;
10565;SDS011;5331;48.148;16.326;2023-04-15T12:03:29;0.90;;;0.90;;
10565;SDS011;5331;48.148;16.326;2023-04-15T12:06:14;0.80;;;0.80;;
10565;SDS011;5331;48.148;16.326;2023-04-15T12:08:49;0.90;;;0.90;;
10565;SDS011;5331;48.148;16.326;2023-04-15T12:11:34;1.13;;;1.10;;
10565;SDS011;5331;48.148;16.326;2023-04-15T12:14:07;0.93;;;0.93;;
10565;SDS011;5331;48.148;16.326;2023-04-15T12:16:37;0.88;;;0.88;;
10565;SDS011;5331;48.148;16.326;2023-04-15T12:19:06;1.65;;;1.55;;
10565;SDS011;5331;48.148;16.326;2023-04-15T12:21:37;1.02;;;1.02;;
10565;SDS011;5331;48.148;16.326;2023-04-15T12:24:07;1.30;;;1.30;;
10565;SDS011;5331;48.148;16.326;2023-04-15T12:26:36;1.23;;;1.23;;
10565;SDS011;5331;48.148;16.326;2023-04-15T12:29:09;1.10;;;1.10;;
10565;SDS011;5331;48.148;16.326;2023-04-15T12:31:45;0.98;;;0.98;;
10565;SDS011;5331;48.148;16.326;2023-04-15T12:34:13;0.90;;;0.90;;
10565;SDS011;5331;48.148;16.326;2023-04-15T12:36:42;1.30;;;1.30;;
10565;SDS011;5331;48.148;16.326;2023-04-15T12:39:09;0.90;;;0.90;;
10565;SDS011;5331;48.148;16.326;2023-04-15T12:41:36;0.65;;;0.65;;
10565;SDS011;5331;48.148;16.326;2023-04-15T12:44:03;0.68;;;0.68;;
10565;SDS011;5331;48.148;16.326;2023-04-15T12:46:30;0.80;;;0.80;;
10565;SDS011;5331;48.148;16.326;2023-04-15T12:48:57;0.60;;;0.60;;
10565;SDS011;5331;48.148;16.326;2023-04-15T12:51:24;1.48;;;1.40;;
10565;SDS011;5331;48.148;16.326;2023-04-15T12:53:53;10.55;;;6.90;;
10565;SDS011;5331;48.148;16.326;2023-04-15T12:56:20;1.25;;;1.10;;
10565;SDS011;5331;48.148;16.326;2023-04-15T12:58:48;1.40;;;1.30;;
10565;SDS011;5331;48.148;16.326;2023-04-15T13:01:15;0.80;;;0.80;;
10565;SDS011;5331;48.148;16.326;2023-04-15T13:03:42;2.28;;;2.08;;
10565;SDS011;5331;48.148;16.326;2023-04-15T13:06:09;4.03;;;2.83;;
10565;SDS011;5331;48.148;16.326;2023-04-15T13:08:36;8.60;;;5.88;;
10565;SDS011;5331;48.148;16.326;2023-04-15T13:11:04;2.78;;;2.58;;
10565;SDS011;5331;48.148;16.326;2023-04-15T13:13:32;0.80;;;0.80;;
10565;SDS011;5331;48.148;16.326;2023-04-15T13:15:59;0.95;;;0.95;;
10565;SDS011;5331;48.148;16.326;2023-04-15T13:18:26;0.70;;;0.70;;
10565;SDS011;5331;48.148;16.326;2023-04-15T13:20:55;0.90;;;0.90;;
10565;SDS011;5331;48.148;16.326;2023-04-15T13:23:22;0.77;;;0.77;;
10565;SDS011;5331;48.148;16.326;2023-04-15T13:25:49;0.90;;;0.90;;
10565;SDS011;5331;48.148;16.326;2023-04-15T13:28:17;0.80;;;0.80;;
10565;SDS011;5331;48.148;16.326;2023-04-15T13:30:44;1.00;;;1.00;;
10565;SDS011;5331;48.148;16.326;2023-04-15T13:33:13;0.90;;;0.90;;
10565;SDS011;5331;48.148;16.326;2023-04-15T13:35:39;0.80;;;0.80;;
10565;SDS011;5331;48.148;16.326;2023-04-15T13:38:07;0.60;;;0.60;;
10565;SDS011;5331;48.148;16.326;2023-04-15T13:40:34;0.50;;;0.50;;
10565;SDS011;5331;48.148;16.326;2023-04-15T13:43:00;0.70;;;0.70;;
10565;SDS011;5331;48.148;16.326;2023-04-15T13:45:30;0.90;;;0.90;;
10565;SDS011;5331;48.148;16.326;2023-04-15T13:47:57;0.90;;;0.80;;
10565;SDS011;5331;48.148;16.326;2023-04-15T13:50:25;1.00;;;1.00;;
10565;SDS011;5331;48.148;16.326;2023-04-15T13:52:52;1.02;;;0.90;;
10565;SDS011;5331;48.148;16.326;2023-04-15T13:55:19;0.80;;;0.80;;
10565;SDS011;5331;48.148;16.326;2023-04-15T13:57:46;0.80;;;0.80;;
10565;SDS011;5331;48.148;16.326;2023-04-15T14:00:14;0.90;;;0.90;;
10565;SDS011;5331;48.148;16.326;2023-04-15T14:02:43;0.70;;;0.70;;
10565;SDS011;5331;48.148;16.326;2023-04-15T14:05:10;0.85;;;0.85;;
10565;SDS011;5331;48.148;16.326;2023-04-15T14:07:37;0.77;;;0.77;;
10565;SDS011;5331;48.148;16.326;2023-04-15T14:10:04;0.80;;;0.80;;
10565;SDS011;5331;48.148;16.326;2023-04-15T14:12:32;0.65;;;0.65;;
10565;SDS011;5331;48.148;16.326;2023-04-15T14:14:59;0.60;;;0.60;;
10565;SDS011;5331;48.148;16.326;2023-04-15T14:17:26;0.95;;;0.95;;
10565;SDS011;5331;48.148;16.326;2023-04-15T14:19:55;0.68;;;0.68;;
10565;SDS011;5331;48.148;16.326;2023-04-15T14:22:21;0.60;;;0.60;;
10565;SDS011;5331;48.148;16.326;2023-04-15T14:24:48;0.77;;;0.77;;
10565;SDS011;5331;48.148;16.326;2023-04-15T14:27:17;0.70;;;0.70;;
10565;SDS011;5331;48.148;16.326;2023-04-15T14:29:44;0.80;;;0.80;;
10565;SDS011;5331;48.148;16.326;2023-04-15T14:32:11;0.80;;;0.80;;
10565;SDS011;5331;48.148;16.326;2023-04-15T14:34:38;0.88;;;0.88;;
10565;SDS011;5331;48.148;16.326;2023-04-15T14:37:07;0.60;;;0.60;;
10565;SDS011;5331;48.148;16.326;2023-04-15T14:39:34;0.82;;;0.82;;
10565;SDS011;5331;48.148;16.326;2023-04-15T14:42:01;0.70;;;0.70;;
10565;SDS011;5331;48.148;16.326;2023-04-15T14:44:29;0.70;;;0.70;;
10565;SDS011;5331;48.148;16.326;2023-04-15T14:46:56;0.65;;;0.65;;
10565;SDS011;5331;48.148;16.326;2023-04-15T14:49:22;0.60;;;0.60;;
10565;SDS011;5331;48.148;16.326;2023-04-15T14:51:50;0.70;;;0.70;;
10565;SDS011;5331;48.148;16.326;2023-04-15T14:54:18;0.70;;;0.70;;
10565;SDS011;5331;48.148;16.326;2023-04-15T14:56:45;0.60;;;0.60;;
10565;SDS011;5331;48.148;16.326;2023-04-15T14:59:12;0.80;;;0.80;;
10565;SDS011;5331;48.148;16.326;2023-04-15T15:01:39;0.80;;;0.80;;
10565;SDS011;5331;48.148;16.326;2023-04-15T15:04:06;0.70;;;0.70;;
10565;SDS011;5331;48.148;16.326;2023-04-15T15:06:35;0.98;;;0.98;;